createdAt,value
2018-12-10T00:02:21.181Z,98246.26
2018-12-10T00:04:49.505Z,98248.27
2018-12-10T00:07:17.900Z,98252.11
2018-12-10T00:09:46.205Z,98257.88
2018-12-10T00:12:14.840Z,98253.63
2018-12-10T00:14:43.164Z,98264.84
2018-12-10T00:17:11.594Z,98289.48
2018-12-10T00:19:39.866Z,98260.28
2018-12-10T00:22:08.182Z,98268.84
2018-12-10T00:24:36.734Z,98273.97
2018-12-10T00:27:05.126Z,98271.61
2018-12-10T00:29:33.427Z,98286.56
2018-12-10T00:32:01.845Z,98277.55
2018-12-10T00:34:30.482Z,98283.47
2018-12-10T00:36:59.413Z,98289.53
2018-12-10T00:39:27.734Z,98306.50
2018-12-10T00:41:56.077Z,98293.30
2018-12-10T00:44:24.395Z,98293.61
2018-12-10T00:46:53.333Z,98298.36
2018-12-10T00:49:21.609Z,98298.95
2018-12-10T00:51:50.005Z,98295.31
2018-12-10T00:54:18.297Z,98312.30
2018-12-10T00:56:46.839Z,98311.58
2018-12-10T00:59:15.085Z,98312.94
2018-12-10T01:01:43.404Z,98321.20
2018-12-10T01:04:12.086Z,98334.29
2018-12-10T01:06:40.516Z,98324.16
2018-12-10T01:09:08.954Z,98336.19
2018-12-10T01:11:37.302Z,98329.25
2018-12-10T01:14:05.621Z,98346.20
2018-12-10T01:16:33.969Z,98337.94
2018-12-10T01:19:02.246Z,98349.98
2018-12-10T01:21:30.746Z,98360.24
2018-12-10T01:23:59.002Z,98366.73
2018-12-10T01:26:27.316Z,98352.28
2018-12-10T01:28:55.820Z,98356.27
2018-12-10T01:31:24.164Z,98364.57
2018-12-10T01:33:52.621Z,98385.02
2018-12-10T01:36:20.903Z,98368.33
2018-12-10T01:38:49.250Z,98369.75
2018-12-10T01:41:17.570Z,98377.47
2018-12-10T01:43:45.932Z,98381.67
2018-12-10T01:46:14.221Z,98380.70
2018-12-10T01:48:42.547Z,98374.81
2018-12-10T01:51:10.885Z,98378.86
2018-12-10T01:53:39.233Z,98377.67
2018-12-10T01:56:07.596Z,98376.41
2018-12-10T01:58:35.892Z,98397.41
2018-12-10T02:01:04.207Z,98391.06
2018-12-10T02:03:32.550Z,98381.25
2018-12-10T02:06:00.956Z,98400.98
2018-12-10T02:08:29.329Z,98397.61
2018-12-10T02:10:57.748Z,98411.59
2018-12-10T02:13:26.069Z,98423.23
2018-12-10T02:15:54.440Z,98419.91
2018-12-10T02:18:22.768Z,98430.36
2018-12-10T02:20:52.530Z,98423.47
2018-12-10T02:23:21.244Z,98428.00
2018-12-10T02:25:49.716Z,98422.72
2018-12-10T02:28:22.153Z,98432.86
2018-12-10T02:30:50.396Z,98437.20
2018-12-10T02:33:18.765Z,98437.27
2018-12-10T02:35:47.166Z,98441.28
2018-12-10T02:38:15.656Z,98434.12
2018-12-10T02:40:44.083Z,98446.86
2018-12-10T02:43:12.541Z,98443.90
2018-12-10T02:45:40.904Z,98444.06
2018-12-10T02:48:09.169Z,98457.96
2018-12-10T02:50:37.464Z,98452.50
2018-12-10T02:53:05.682Z,98456.20
2018-12-10T02:55:33.945Z,98459.70
2018-12-10T02:58:02.277Z,98462.95
2018-12-10T03:00:30.605Z,98472.53
2018-12-10T03:03:00.938Z,98474.01
2018-12-10T03:05:29.429Z,98487.98
2018-12-10T03:07:57.896Z,98481.06
2018-12-10T03:10:26.353Z,98473.14
2018-12-10T03:12:54.702Z,98485.89
2018-12-10T03:15:23.131Z,98498.86
2018-12-10T03:17:51.566Z,98496.16
2018-12-10T03:20:19.876Z,98491.94
2018-12-10T03:22:48.245Z,98511.53
2018-12-10T03:25:16.732Z,98499.34
2018-12-10T03:27:45.002Z,98506.05
2018-12-10T03:30:13.460Z,98503.34
2018-12-10T03:32:41.837Z,98515.03
2018-12-10T03:35:10.166Z,98515.69
2018-12-10T03:37:38.510Z,98524.20
2018-12-10T03:40:06.863Z,98517.55
2018-12-10T03:42:35.139Z,98523.47
2018-12-10T03:45:03.411Z,98521.36
2018-12-10T03:47:31.776Z,98522.73
2018-12-10T03:50:00.156Z,98523.77
2018-12-10T03:52:28.453Z,98519.44
2018-12-10T03:54:56.732Z,98517.35
2018-12-10T03:57:25.130Z,98532.17
2018-12-10T03:59:53.622Z,98529.84
2018-12-10T04:02:21.929Z,98525.34
2018-12-10T04:04:53.139Z,98535.71
2018-12-10T04:07:25.760Z,98534.88
2018-12-10T04:09:54.086Z,98537.05
2018-12-10T04:12:22.384Z,98539.12
2018-12-10T04:14:50.807Z,98542.15
2018-12-10T04:17:19.125Z,98532.64
2018-12-10T04:19:47.617Z,98535.67
2018-12-10T04:22:15.954Z,98532.36
2018-12-10T04:24:45.732Z,98540.21
2018-12-10T04:27:14.303Z,98537.34
2018-12-10T04:29:42.570Z,98536.06
2018-12-10T04:32:11.069Z,98542.06
2018-12-10T04:34:39.355Z,98540.81
2018-12-10T04:37:07.856Z,98546.96
2018-12-10T04:39:36.320Z,98546.96
2018-12-10T04:42:04.851Z,98542.22
2018-12-10T04:44:33.394Z,98557.06
2018-12-10T04:47:02.052Z,98562.38
2018-12-10T04:49:30.615Z,98563.76
2018-12-10T04:51:58.889Z,98560.39
2018-12-10T04:54:27.292Z,98560.92
2018-12-10T04:56:55.697Z,98568.80
2018-12-10T04:59:24.058Z,98568.20
2018-12-10T05:01:52.402Z,98573.86
2018-12-10T05:04:20.809Z,98567.18
2018-12-10T05:06:49.068Z,98571.59
2018-12-10T05:09:17.560Z,98571.02
2018-12-10T05:11:46.135Z,98579.05
2018-12-10T05:14:14.659Z,98584.72
2018-12-10T05:16:42.878Z,98584.36
2018-12-10T05:19:11.185Z,98585.89
2018-12-10T05:21:39.580Z,98592.66
2018-12-10T05:24:07.943Z,98597.96
2018-12-10T05:26:36.213Z,98601.52
2018-12-10T05:29:04.749Z,98595.97
2018-12-10T05:31:33.086Z,98599.36
2018-12-10T05:34:01.395Z,98600.89
2018-12-10T05:36:29.728Z,98599.05
2018-12-10T05:38:58.022Z,98609.78
2018-12-10T05:41:26.455Z,98615.67
2018-12-10T05:43:54.852Z,98634.27
2018-12-10T05:46:23.240Z,98634.62
2018-12-10T05:48:51.583Z,98635.11
2018-12-10T05:51:20.095Z,98648.82
2018-12-10T05:53:48.410Z,98635.69
2018-12-10T05:56:16.850Z,98642.78
2018-12-10T05:58:45.412Z,98644.53
2018-12-10T06:01:13.664Z,98654.48
2018-12-10T06:03:41.998Z,98667.05
2018-12-10T06:06:10.481Z,98663.57
2018-12-10T06:08:38.751Z,98673.91
2018-12-10T06:11:07.242Z,98671.69
2018-12-10T06:13:35.582Z,98678.30
2018-12-10T06:16:03.976Z,98676.86
2018-12-10T06:18:32.556Z,98681.20
2018-12-10T06:21:00.916Z,98680.81
2018-12-10T06:23:29.191Z,98680.48
2018-12-10T06:25:57.513Z,98683.41
2018-12-10T06:28:26.366Z,98693.51
2018-12-10T06:30:54.673Z,98693.33
2018-12-10T06:33:22.997Z,98697.95
2018-12-10T06:35:51.398Z,98693.14
2018-12-10T06:38:19.707Z,98694.73
2018-12-10T06:40:48.056Z,98694.81
2018-12-10T06:43:16.362Z,98711.22
2018-12-10T06:45:44.634Z,98702.37
2018-12-10T06:48:12.910Z,98703.04
2018-12-10T06:50:41.196Z,98699.17
2018-12-10T06:53:09.662Z,98716.02
2018-12-10T06:55:37.922Z,98713.44
2018-12-10T06:58:06.889Z,98714.03
2018-12-10T07:00:35.224Z,98719.63
2018-12-10T07:03:04.132Z,98718.77
2018-12-10T07:05:32.526Z,98726.38
2018-12-10T07:08:00.750Z,98732.08
2018-12-10T07:10:29.059Z,98732.91
2018-12-10T07:12:57.356Z,98731.34
2018-12-10T07:15:25.695Z,98740.36
2018-12-10T07:17:54.027Z,98733.04
2018-12-10T07:20:22.319Z,98743.94
2018-12-10T07:22:50.703Z,98753.09
2018-12-10T07:25:19.002Z,98743.94
2018-12-10T07:27:47.315Z,98749.95
2018-12-10T07:30:15.744Z,98751.55
2018-12-10T07:32:44.035Z,98752.91
2018-12-10T07:35:12.314Z,98750.45
2018-12-10T07:37:40.673Z,98752.70
2018-12-10T07:40:08.962Z,98764.02
2018-12-10T07:42:37.241Z,98764.12
2018-12-10T07:45:06.328Z,98771.95
2018-12-10T07:47:34.723Z,98772.59
2018-12-10T07:50:03.246Z,98773.30
2018-12-10T07:52:31.689Z,98782.73
2018-12-10T07:54:59.974Z,98781.98
2018-12-10T07:57:28.277Z,98779.09
2018-12-10T07:59:56.675Z,98786.96
2018-12-10T08:02:24.968Z,98789.86
2018-12-10T08:04:53.303Z,98786.94
2018-12-10T08:07:21.715Z,98789.91
2018-12-10T08:09:50.086Z,98795.49
2018-12-10T08:12:18.467Z,98798.71
2018-12-10T08:14:46.762Z,98805.27
2018-12-10T08:17:15.093Z,98807.14
2018-12-10T08:19:43.994Z,98812.45
2018-12-10T08:22:12.270Z,98808.51
2018-12-10T08:24:40.584Z,98805.67
2018-12-10T08:27:09.631Z,98809.91
2018-12-10T08:29:38.079Z,98812.51
2018-12-10T08:32:06.384Z,98816.20
2018-12-10T08:37:05.048Z,98817.47
2018-12-10T08:39:14.916Z,98821.30
2018-12-10T08:39:33.462Z,98826.97
2018-12-10T08:42:01.729Z,98822.43
2018-12-10T08:44:30.151Z,98818.00
2018-12-10T08:46:58.537Z,98827.97
2018-12-10T08:49:26.844Z,98830.80
2018-12-10T08:51:55.177Z,98831.18
2018-12-10T08:54:24.615Z,98827.68
2018-12-10T08:56:52.914Z,98831.12
2018-12-10T08:59:21.475Z,98832.48
2018-12-10T09:01:49.784Z,98829.86
2018-12-10T09:04:18.083Z,98834.40
2018-12-10T09:06:46.552Z,98832.96
2018-12-10T09:09:14.899Z,98841.70
2018-12-10T09:11:43.221Z,98843.47
2018-12-10T09:14:11.600Z,98844.91
2018-12-10T09:16:39.925Z,98843.77
2018-12-10T09:19:08.265Z,98850.58
2018-12-10T09:21:36.611Z,98849.43
2018-12-10T09:24:04.913Z,98844.20
2018-12-10T09:26:33.257Z,98841.38
2018-12-10T09:29:01.700Z,98844.11
2018-12-10T09:31:30.222Z,98846.31
2018-12-10T09:33:58.637Z,98842.86
2018-12-10T09:36:26.996Z,98843.53
2018-12-10T09:38:55.261Z,98837.20
2018-12-10T09:41:24.162Z,98843.09
2018-12-10T09:43:52.915Z,98853.80
2018-12-10T09:46:27.437Z,98849.39
2018-12-10T09:48:51.519Z,98851.77
2018-12-10T09:51:20.008Z,98848.48
2018-12-10T09:53:48.338Z,98846.42
2018-12-10T09:56:16.763Z,98846.95
2018-12-10T09:58:45.208Z,98861.05
2018-12-10T10:01:13.653Z,98849.39
2018-12-10T10:03:41.986Z,98858.79
2018-12-10T10:06:10.521Z,98855.98
2018-12-10T10:08:38.826Z,98857.66
2018-12-10T10:11:07.152Z,98860.47
2018-12-10T10:13:35.410Z,98859.91
2018-12-10T10:16:03.752Z,98866.48
2018-12-10T10:18:32.091Z,98868.30
2018-12-10T10:21:00.507Z,98870.52
2018-12-10T10:23:28.808Z,98872.92
2018-12-10T10:25:57.174Z,98864.78
2018-12-10T10:28:25.770Z,98859.61
2018-12-10T10:30:54.080Z,98862.23
2018-12-10T10:33:22.447Z,98857.67
2018-12-10T10:35:50.738Z,98862.73
2018-12-10T10:38:19.035Z,98867.17
2018-12-10T10:40:47.326Z,98861.60
2018-12-10T10:43:15.765Z,98865.47
2018-12-10T10:45:44.182Z,98868.94
2018-12-10T10:48:12.467Z,98867.08
2018-12-10T10:50:40.756Z,98868.05
2018-12-10T10:53:09.095Z,98853.80
2018-12-10T10:55:37.625Z,98855.08
2018-12-10T10:58:06.140Z,98854.25
2018-12-10T11:00:39.974Z,98856.75
2018-12-10T11:03:15.491Z,98865.11
2018-12-10T11:05:43.952Z,98870.01
2018-12-10T11:08:12.228Z,98866.93
2018-12-10T11:10:41.182Z,98865.05
2018-12-10T11:13:09.733Z,98863.84
2018-12-10T11:15:38.306Z,98861.81
2018-12-10T11:18:07.810Z,98861.30
2018-12-10T11:20:37.157Z,98866.38
2018-12-10T11:23:05.601Z,98872.27
2018-12-10T11:25:36.182Z,98864.90
2018-12-10T11:28:07.851Z,98867.09
2018-12-10T11:30:36.296Z,98863.25
2018-12-10T11:33:04.744Z,98865.20
2018-12-10T11:35:33.037Z,98866.39
2018-12-10T11:38:01.400Z,98871.32
2018-12-10T11:40:29.797Z,98862.92
2018-12-10T11:42:58.086Z,98853.44
2018-12-10T11:45:27.590Z,98867.49
2018-12-10T11:47:55.990Z,98858.82
2018-12-10T11:50:24.414Z,98842.91
2018-12-10T11:52:53.216Z,98843.41
2018-12-10T11:55:21.471Z,98839.05
2018-12-10T11:57:49.732Z,98837.06
2018-12-10T12:00:18.002Z,98839.20
2018-12-10T12:02:46.246Z,98841.93
2018-12-10T12:05:14.568Z,98834.73
2018-12-10T12:07:42.857Z,98827.45
2018-12-10T12:10:11.373Z,98826.72
2018-12-10T12:12:39.878Z,98822.64
2018-12-10T12:15:08.337Z,98833.13
2018-12-10T12:17:37.373Z,98822.45
2018-12-10T12:20:07.656Z,98830.65
2018-12-10T12:22:35.943Z,98824.22
2018-12-10T12:25:04.550Z,98821.19
2018-12-10T12:27:32.794Z,98823.13
2018-12-10T12:30:01.296Z,98812.30
2018-12-10T12:32:29.717Z,98820.03
2018-12-10T12:34:58.042Z,98819.31
2018-12-10T12:37:26.303Z,98823.34
2018-12-10T12:39:54.625Z,98821.54
2018-12-10T12:42:22.931Z,98819.40
2018-12-10T12:44:51.207Z,98818.75
2018-12-10T12:47:19.603Z,98821.70
2018-12-10T12:49:47.978Z,98811.84
2018-12-10T12:52:16.481Z,98814.25
2018-12-10T12:54:44.779Z,98810.17
2018-12-10T12:57:13.131Z,98807.55
2018-12-10T12:59:41.494Z,98807.30
2018-12-10T13:02:09.740Z,98816.09
2018-12-10T13:04:38.045Z,98810.30
2018-12-10T13:07:06.285Z,98816.05
2018-12-10T13:09:34.563Z,98811.17
2018-12-10T13:12:02.852Z,98800.84
2018-12-10T13:14:31.159Z,98798.87
2018-12-10T13:16:59.772Z,98793.20
2018-12-10T13:19:29.702Z,98788.69
2018-12-10T13:21:58.398Z,98790.01
2018-12-10T13:24:26.645Z,98794.48
2018-12-10T13:26:54.969Z,98802.47
2018-12-10T13:29:31.041Z,98786.58
2018-12-10T13:31:54.080Z,98772.30
2018-12-10T13:34:22.365Z,98776.70
2018-12-10T13:36:50.802Z,98770.28
2018-12-10T13:39:19.161Z,98772.15
2018-12-10T13:41:47.637Z,98776.91
2018-12-10T13:44:16.082Z,98771.16
2018-12-10T13:46:44.396Z,98768.75
2018-12-10T13:49:12.652Z,98768.97
2018-12-10T13:51:41.065Z,98765.48
2018-12-10T13:54:09.686Z,98756.18
2018-12-10T13:56:38.060Z,98758.94
2018-12-10T13:59:06.664Z,98763.66
2018-12-10T14:01:34.977Z,98755.23
2018-12-10T14:04:07.318Z,98756.42
2018-12-10T14:06:35.728Z,98759.07
2018-12-10T14:09:08.009Z,98756.94
2018-12-10T14:11:35.029Z,98758.27
2018-12-10T14:14:03.534Z,98758.73
2018-12-10T14:16:31.891Z,98763.27
2018-12-10T14:19:00.291Z,98768.78
2018-12-10T14:21:28.573Z,98774.28
2018-12-10T14:23:57.130Z,98762.45
2018-12-10T14:26:25.638Z,98754.31
2018-12-10T14:28:54.039Z,98765.56
2018-12-10T14:31:27.255Z,98763.87
2018-12-10T14:33:52.777Z,98764.84
2018-12-10T14:36:21.050Z,98767.59
2018-12-10T14:38:49.356Z,98767.95
2018-12-10T14:41:17.741Z,98773.41
2018-12-10T14:43:46.178Z,98778.42
2018-12-10T14:46:14.517Z,98777.55
2018-12-10T14:48:42.775Z,98778.34
2018-12-10T14:51:11.251Z,98771.16
2018-12-10T14:53:39.566Z,98778.05
2018-12-10T14:56:07.937Z,98769.81
2018-12-10T14:58:36.457Z,98777.14
2018-12-10T15:01:04.817Z,98774.41
2018-12-10T15:03:33.133Z,98771.69
2018-12-10T15:06:01.430Z,98774.28
2018-12-10T15:08:29.790Z,98772.80
2018-12-10T15:10:58.167Z,98772.84
2018-12-10T15:13:26.467Z,98770.43
2018-12-10T15:15:54.973Z,98774.34
2018-12-10T15:18:23.310Z,98774.17
2018-12-10T15:20:51.610Z,98774.16
2018-12-10T15:23:20.055Z,98777.97
2018-12-10T15:25:48.460Z,98781.82
2018-12-10T15:28:16.916Z,98772.80
2018-12-10T15:30:45.374Z,98776.81
2018-12-10T15:33:13.735Z,98781.64
2018-12-10T15:35:42.152Z,98784.72
2018-12-10T15:38:10.511Z,98781.90
2018-12-10T15:40:38.854Z,98779.63
2018-12-10T15:43:07.216Z,98769.06
2018-12-10T15:45:35.483Z,98769.95
2018-12-10T15:48:03.758Z,98769.69
2018-12-10T15:50:32.279Z,98767.00
2018-12-10T15:53:00.630Z,98770.16
2018-12-10T15:55:29.036Z,98770.08
2018-12-10T15:57:57.382Z,98771.28
2018-12-10T16:00:25.878Z,98764.22
2018-12-10T16:02:54.464Z,98769.56
2018-12-10T16:05:22.960Z,98759.95
2018-12-10T16:07:52.828Z,98777.20
2018-12-10T16:10:25.043Z,98768.43
2018-12-10T16:12:53.780Z,98767.27
2018-12-10T16:15:22.339Z,98767.31
2018-12-10T16:17:51.030Z,98767.69
2018-12-10T16:20:27.298Z,98778.19
2018-12-10T16:22:56.861Z,98772.84
2018-12-10T16:25:29.102Z,98775.88
2018-12-10T16:28:00.840Z,98783.47
2018-12-10T16:30:32.218Z,98792.99
2018-12-10T16:33:05.061Z,98795.70
2018-12-10T16:35:36.275Z,98797.91
2018-12-10T16:38:06.806Z,98793.98
2018-12-10T16:40:38.599Z,98795.26
2018-12-10T16:43:08.449Z,98799.85
2018-12-10T16:45:38.175Z,98802.55
2018-12-10T16:48:09.183Z,98800.56
2018-12-10T16:50:38.811Z,98788.89
2018-12-10T16:53:07.401Z,98789.87
2018-12-10T16:55:36.435Z,98785.29
2018-12-10T16:58:05.602Z,98780.63
2018-12-10T17:00:36.814Z,98775.72
2018-12-10T17:03:06.293Z,98784.18
2018-12-10T17:05:36.464Z,98774.22
2018-12-10T17:08:05.105Z,98772.90
2018-12-10T17:10:35.178Z,98766.00
2018-12-10T17:13:05.328Z,98766.82
2018-12-10T17:15:35.145Z,98759.95
2018-12-10T17:18:05.311Z,98769.17
2018-12-10T17:20:35.867Z,98764.61
2018-12-10T17:23:05.419Z,98770.80
2018-12-10T17:25:38.312Z,98767.16
2018-12-10T17:28:07.891Z,98767.78
2018-12-10T17:30:36.682Z,98765.65
2018-12-10T17:33:09.747Z,98764.98
2018-12-10T17:35:39.796Z,98765.52
2018-12-10T17:38:08.768Z,98763.11
2018-12-10T17:40:40.492Z,98761.27
2018-12-10T17:43:10.298Z,98755.92
2018-12-10T17:45:38.970Z,98753.83
2018-12-10T17:48:07.750Z,98758.84
2018-12-10T17:50:36.410Z,98757.08
2018-12-10T17:53:05.467Z,98763.47
2018-12-10T17:55:34.489Z,98764.45
2018-12-10T17:58:04.694Z,98760.00
2018-12-10T18:00:35.858Z,98768.63
2018-12-10T18:03:06.522Z,98765.30
2018-12-10T18:05:37.369Z,98760.19
2018-12-10T18:08:06.892Z,98759.84
2018-12-10T18:10:35.836Z,98749.66
2018-12-10T18:13:05.565Z,98753.52
2018-12-10T18:15:36.143Z,98749.13
2018-12-10T18:18:06.093Z,98749.45
2018-12-10T18:20:34.739Z,98758.70
2018-12-10T18:23:04.933Z,98754.33
2018-12-10T18:25:33.929Z,98747.69
2018-12-10T18:28:05.033Z,98754.22
2018-12-10T18:30:34.592Z,98750.11
2018-12-10T18:33:05.665Z,98737.88
2018-12-10T18:35:36.972Z,98743.78
2018-12-10T18:38:06.199Z,98750.60
2018-12-10T18:40:35.398Z,98756.95
2018-12-10T18:43:04.370Z,98767.77
2018-12-10T18:45:35.353Z,98810.09
2018-12-10T18:48:05.311Z,98828.76
2018-12-10T18:50:35.196Z,98854.94
2018-12-10T18:53:04.104Z,98853.13
2018-12-10T18:55:34.307Z,98856.53
2018-12-10T18:58:05.755Z,98850.27
2018-12-10T19:00:35.243Z,98838.18
2018-12-10T19:03:03.868Z,98840.88
2018-12-10T19:05:33.027Z,98845.86
2018-12-10T19:08:01.675Z,98843.41
2018-12-10T19:10:31.369Z,98846.36
2018-12-10T19:13:00.524Z,98856.08
2018-12-10T19:15:30.512Z,98854.95
2018-12-10T19:18:01.481Z,98859.13
2018-12-10T19:20:32.068Z,98857.67
2018-12-10T19:23:04.082Z,98852.92
2018-12-10T19:25:34.042Z,98878.89
2018-12-10T19:28:04.098Z,98880.30
2018-12-10T19:30:34.982Z,98867.39
2018-12-10T19:33:05.134Z,98864.44
2018-12-10T19:35:33.949Z,98866.30
2018-12-10T19:38:02.706Z,98868.27
2018-12-10T19:40:31.900Z,98868.70
2018-12-10T19:43:00.783Z,98871.86
2018-12-10T19:45:30.354Z,98869.23
2018-12-10T19:47:59.601Z,98872.89
2018-12-10T19:50:30.277Z,98873.48
2018-12-10T19:52:58.704Z,98873.75
2018-12-10T19:55:29.139Z,98871.63
2018-12-10T19:57:57.769Z,98867.88
2018-12-10T20:00:26.392Z,98870.59
2018-12-10T20:02:56.032Z,98870.10
2018-12-10T20:05:31.077Z,98873.77
2018-12-10T20:08:01.716Z,98868.16
2018-12-10T20:10:30.259Z,98865.52
2018-12-10T20:12:59.150Z,98867.36
2018-12-10T20:15:28.176Z,98879.56
2018-12-10T20:17:57.351Z,98884.67
2018-12-10T20:20:26.023Z,98885.47
2018-12-10T20:22:54.645Z,98882.25
2018-12-10T20:25:23.164Z,98881.72
2018-12-10T20:27:52.599Z,98878.92
2018-12-10T20:30:21.511Z,98881.39
2018-12-10T20:32:50.810Z,98882.30
2018-12-10T20:35:20.328Z,98887.58
2018-12-10T20:37:48.784Z,98883.34
2018-12-10T20:40:17.649Z,98884.14
2018-12-10T20:42:47.444Z,98882.82
2018-12-10T20:45:16.104Z,98884.03
2018-12-10T20:47:45.935Z,98887.08
2018-12-10T20:50:14.672Z,98894.66
2018-12-10T20:52:45.915Z,98905.66
2018-12-10T20:55:14.310Z,98903.06
2018-12-10T20:57:42.764Z,98907.08
2018-12-10T21:00:11.466Z,98916.43
2018-12-10T21:02:39.821Z,98909.27
2018-12-10T21:05:08.210Z,98916.74
2018-12-10T21:07:36.582Z,98916.53
2018-12-10T21:10:05.685Z,98922.20
2018-12-10T21:12:33.960Z,98923.31
2018-12-10T21:15:02.319Z,98920.03
2018-12-10T21:17:30.807Z,98921.30
2018-12-10T21:19:59.067Z,98917.37
2018-12-10T21:22:27.382Z,98926.80
2018-12-10T21:24:57.494Z,98919.17
2018-12-10T21:27:27.110Z,98914.50
2018-12-10T21:29:55.698Z,98918.90
2018-12-10T21:32:24.145Z,98924.91
2018-12-10T21:34:52.615Z,98920.72
2018-12-10T21:37:21.011Z,98922.48
2018-12-10T21:39:49.483Z,98929.78
2018-12-10T21:42:20.062Z,98935.45
2018-12-10T21:44:53.545Z,98937.67
2018-12-10T21:47:22.113Z,98943.03
2018-12-10T21:49:50.897Z,98944.73
2018-12-10T21:52:19.182Z,98950.12
2018-12-10T21:54:47.944Z,98950.11
2018-12-10T21:57:16.391Z,98953.49
2018-12-10T21:59:44.749Z,98952.61
2018-12-10T22:02:15.034Z,98955.88
2018-12-10T22:04:43.489Z,98954.30
2018-12-10T22:07:11.952Z,98954.20
2018-12-10T22:09:40.247Z,98951.69
2018-12-10T22:12:08.884Z,98957.78
2018-12-10T22:14:40.441Z,98949.97
2018-12-10T22:17:08.845Z,98945.86
2018-12-10T22:19:37.158Z,98950.38
2018-12-10T22:22:05.545Z,98950.38
2018-12-10T22:24:33.826Z,98947.06
2018-12-10T22:27:02.175Z,98946.52
2018-12-10T22:29:31.510Z,98945.66
2018-12-10T22:31:59.792Z,98935.99
2018-12-10T22:34:28.089Z,98942.79
2018-12-10T22:36:57.828Z,98942.49
2018-12-10T22:39:26.613Z,98934.06
2018-12-10T22:41:54.904Z,98933.34
2018-12-10T22:44:23.221Z,98938.06
2018-12-10T22:46:51.568Z,98933.05
2018-12-10T22:49:20.053Z,98932.63
2018-12-10T22:51:48.325Z,98935.47
2018-12-10T22:54:16.634Z,98929.62
2018-12-10T22:56:44.897Z,98938.72
2018-12-10T22:59:13.174Z,98935.37
2018-12-10T23:01:41.492Z,98931.66
2018-12-10T23:04:12.173Z,98921.69
2018-12-10T23:06:40.446Z,98934.03
2018-12-10T23:09:08.932Z,98933.98
2018-12-10T23:11:37.693Z,98931.66
2018-12-10T23:14:06.127Z,98935.67
2018-12-10T23:16:34.379Z,98930.72
2018-12-10T23:19:02.771Z,98931.31
2018-12-10T23:21:31.103Z,98925.50
2018-12-10T23:23:59.534Z,98929.67
2018-12-10T23:26:27.834Z,98924.16
2018-12-10T23:28:56.207Z,98921.89
2018-12-10T23:31:24.432Z,98923.75
2018-12-10T23:33:53.043Z,98924.20
2018-12-10T23:36:21.303Z,98922.15
2018-12-10T23:38:49.732Z,98917.56
2018-12-10T23:41:18.049Z,98923.56
2018-12-10T23:43:46.602Z,98927.42
2018-12-10T23:46:15.018Z,98927.22
2018-12-10T23:48:43.268Z,98921.86
2018-12-10T23:51:11.688Z,98924.61
2018-12-10T23:53:40.071Z,98918.98
2018-12-10T23:56:08.369Z,98919.52
2018-12-10T23:58:36.834Z,98919.35
